Tuesday, September 2, 2014, 1:19 PM EDT

KMUI, Muir Army Air Field / Indiantown

Location: Jonestown, PA, United States Lat: 40.433
Local Time: 1:19 PM EDT (17:19 GMT) Lon: -76.567
Time Zone: US/Eastern Elev: 488 ft

Show me the last for .
Show Decoded

2014-09-02 12:58 METAR KMUI 021658Z AUTO 24010KT 10SM SCT041 30/22 A2994 RMK AO2 RAB1637E1646
                 SLP138 P0000 T03040217 $ =
2014-09-02 12:46 METAR KMUI 021646Z AUTO VRB06KT 10SM FEW043 31/22 A2994 RMK AO2 =
2014-09-02 12:37 METAR KMUI 021637Z AUTO 26007KT 10SM -RA SCT041 SCT060 30/22 A2994 RMK AO2 =
2014-09-02 11:58 METAR KMUI 021558Z AUTO 24010KT 10SM SCT037 30/22 A2996 RMK AO2 SLP144 T03040223
                 $ =
2014-09-02 10:58 METAR KMUI 021458Z AUTO 23007KT 10SM FEW028 SCT038 29/24 A2997 RMK AO2 SLP148
                 60000 T02880244 50001 $ =
2014-09-02 09:58 METAR KMUI 021358Z AUTO 23005KT 10SM CLR 26/26 A2997 RMK AO2 SLP148 T02630255 $
                 =
2014-09-02 08:58 METAR KMUI 021258Z AUTO VRB02KT 10SM CLR 23/23 A2997 RMK AO2 RAB1243E1247 SLP148
                 P0000 T02250225 $ =
2014-09-02 08:47 METAR KMUI 021247Z AUTO VRB01KT 10SM CLR 23/23 A2997 RMK AO2 RAB1243 $ =
2014-09-02 08:43 METAR KMUI 021243Z AUTO VRB01KT 8SM -RA FEW034 22/22 A2997 RMK AO2 =
2014-09-02 08:28 METAR KMUI 021228Z AUTO 35001KT 3SM BR SCT001 BKN034 22/22 A2997 RMK AO2 $ =
2014-09-02 08:24 METAR KMUI 021224Z AUTO 00000KT 2SM BR SCT001 BKN034 21/21 A2997 RMK AO2 VIS 1V2
                 $ =
2014-09-02 08:22 METAR KMUI 021222Z AUTO 00000KT 1 3/4SM BR SCT001 BKN034 21/21 A2997 RMK AO2 VIS
                 1V1 3/4 $ =
2014-09-02 08:20 METAR KMUI 021220Z AUTO 00000KT 1 1/2SM BR SCT001 BKN034 21/21 A2997 RMK AO2 VIS
                 3/4V1 1/2 $ =
2014-09-02 08:18 METAR KMUI 021218Z AUTO 00000KT 1 1/4SM BR BKN001 BKN034 21/21 A2997 RMK AO2 VIS
                 3/4V1 1/4 $ =
2014-09-02 08:16 METAR KMUI 021216Z AUTO 00000KT 1 1/4SM BR BKN001 BKN035 21/21 A2997 RMK AO2 VIS
                 3/4V1 1/4 $ =
2014-09-02 08:14 METAR KMUI 021214Z AUTO 00000KT 1SM BR VV001 21/21 A2997 RMK AO2 RVRNO $ =
2014-09-02 08:10 METAR KMUI 021210Z AUTO 00000KT 3/4SM BR VV001 21/21 A2997 RMK AO2 VIS 1/2V1 CIG
                 001V034 RVRNO $ =
2014-09-02 08:06 METAR KMUI 021206Z AUTO 00000KT 1SM BR VV001 21/21 A2997 RMK AO2 VIS 1/4V1 CIG
                 001V034 RVRNO $ =
2014-09-02 08:04 METAR KMUI 021204Z AUTO 00000KT 1SM BR SCT001 BKN034 21/21 A2997 RMK AO2 VIS
                 1/4V1 RVRNO $ =
2014-09-02 08:00 METAR KMUI 021200Z AUTO 00000KT 1/2SM FG SCT001 BKN034 21/21 A2997 RMK AO2 RVRNO
                 $ =
2014-09-02 07:58 METAR KMUI 021158Z AUTO 00000KT 1/4SM FG SCT001 BKN034 21/21 A2997 RMK AO2
                 SLP149 52012 RVRNO $ =
2014-09-02 06:58 METAR KMUI 021058Z AUTO 00000KT M1/4SM FG VV001 20/20 A2996 RMK AO2 SLP145
                 T02030203 RVRNO $ =
2014-09-02 05:58 METAR KMUI 020958Z AUTO 36002KT 1/4SM FG VV001 20/20 A2994 RMK AO2 SLP138
                 T02010201 RVRNO $ =
2014-09-02 05:07 METAR KMUI 020907Z AUTO 00000KT 1/4SM FG VV001 20/20 A2993 RMK AO2 RVRNO =
2014-09-02 04:58 METAR KMUI 020858Z AUTO 00000KT 1/4SM FG CLR 20/20 A2993 RMK AO2 VIS 1/4V2 1/2
                 SLP134 T01970197 57007 RVRNO $ =
2014-09-02 04:56 METAR KMUI 020856Z AUTO 00000KT 1/2SM FG CLR 20/20 A2993 RMK AO2 VIS 1/2V7 RVRNO
                 $ =
2014-09-02 04:54 METAR KMUI 020854Z AUTO 00000KT 3/4SM BR CLR 20/20 A2993 RMK AO2 VIS 3/4V9 RVRNO
                 $ =
2014-09-02 04:52 METAR KMUI 020852Z AUTO 00000KT 1SM BR CLR 20/20 A2993 RMK AO2 VIS 1V10 RVRNO $
                 =
2014-09-02 04:50 METAR KMUI 020850Z AUTO 00000KT 2SM BR CLR 20/20 A2993 RMK AO2 VIS 2V10 $ =
2014-09-02 03:58 METAR KMUI 020758Z AUTO 09002KT 4SM BR CLR 20/20 A2994 RMK AO2 SLP138 T02010201
                 $ =
2014-09-02 02:40 METAR KMUI 020640Z AUTO 00000KT 2SM BR CLR 21/21 A2994 RMK AO2 VIS 2V9 =
2014-09-02 02:26 METAR KMUI 020626Z AUTO 00000KT 3SM BR FEW050 21/21 A2994 RMK AO2 =
2014-09-02 02:18 METAR KMUI 020618Z AUTO 00000KT 2SM BR SCT055 21/21 A2995 RMK AO2 VIS 2V9 $ =
2014-09-02 01:58 METAR KMUI 020558Z AUTO 00000KT 10SM SCT055 21/21 A2996 RMK AO2 SLP145 T02130213
                 10248 20209 57005 $ =
2014-09-02 01:44 METAR KMUI 020544Z AUTO 03002KT 6SM BR CLR 21/21 A2995 RMK AO2 $ =
2014-09-02 01:34 METAR KMUI 020534Z AUTO VRB01KT 2 1/2SM BR CLR 21/21 A2995 RMK AO2 VIS 2 1/2V10
                 =
2014-09-02 00:58 METAR KMUI 020458Z AUTO 00000KT 10SM CLR 22/22 A2996 RMK AO2 LTG DSNT SE SLP145
                 T02150215 403040203 $ =
2014-09-01 23:58 METAR KMUI 020358Z AUTO 00000KT 10SM CLR 22/22 A2997 RMK AO2 SLP148 T02200220 $
                 =
2014-09-01 22:58 METAR KMUI 020258Z AUTO VRB01KT 10SM FEW060 SCT080 23/23 A2997 RMK AO2 SLP148
                 T02330233 50009 $ =
2014-09-01 21:58 METAR KMUI 020158Z AUTO 07001KT 10SM FEW070 BKN130 BKN150 23/23 A2998 RMK AO2
                 SLP152 T02300230 $ =
2014-09-01 20:58 METAR KMUI 020058Z AUTO 00000KT 10SM CLR 24/24 A2996 RMK AO2 SLP145 T02350235 $
                 =
2014-09-01 19:58 METAR KMUI 012358Z AUTO 32002KT 10SM CLR 25/25 A2995 RMK AO2 SLP142 60000
                 T02480247 10304 20248 55002 $ =
2014-09-01 17:58 METAR KMUI 012158Z AUTO 25003KT 10SM FEW042 SCT060 29/22 A2994 RMK AO2 SLP138
                 T02930220 $ =
2014-09-01 16:58 METAR KMUI 012058Z AUTO 24006KT 10SM FEW049 29/22 A2995 RMK AO2 SLP141 60000
                 T02920218 57015 $ =
2014-09-01 15:58 METAR KMUI 011958Z AUTO 25007KT 10SM BKN070 30/22 A2996 RMK AO2 SLP144 T02970218
                 $ =
2014-09-01 14:58 METAR KMUI 011858Z AUTO 26005KT 10SM BKN048 BKN060 28/22 A2998 RMK AO2
                 DZB1757E1806 SLP151 P0000 T02840215 $ =
2014-09-01 14:06 METAR KMUI 011806Z AUTO 27005KT 10SM FEW033 BKN042 28/21 A2999 RMK AO2 =
2014-09-01 13:58 METAR KMUI 011758Z AUTO 26007KT 10SM -DZ FEW030 BKN040 OVC200 28/21 A2999 RMK
                 AO2 SLP155 T02820211 10292 20212 57009 $ =
2014-09-01 13:57 METAR KMUI 011757Z AUTO 26008KT 10SM -DZ FEW030 BKN040 OVC200 28/21 A2999 RMK
                 AO2 $ =

Support USWX by starting your Amazon purchase here.